National Weather Service United States Department of Commerce
Click Here for Latest Airport Weather Warnings
 
Latest Huntsville TAF


642
FTUS44 KHUN 282320
TAFHSV
TAF
KHSV 282320Z 2900/2924 28005KT P6SM FEW040 SCT250
FM290500 27006KT P6SM VCSH BKN035 OVC040
FM290700 29004KT P6SM SCT030 BKN070
FM291400 34008KT P6SM SKC=

Latest Muscle Shoals TAF


381
FTUS44 KHUN 282320
TAFMSL
TAF
KMSL 282320Z 2900/2924 27006KT P6SM FEW050 SCT250
FM290400 27006KT P6SM VCSH BKN045 OVC080
FM290600 28006KT P6SM FEW040 OVC060
FM291400 31005KT P6SM SKC=


Back to Main Huntsville Weather Forecast Office Page